createdAt,value
2022-08-17T00:00:43.625Z,1010.526222
2022-08-17T00:05:16.047Z,1010.464140
2022-08-17T00:10:15.977Z,1010.402655
2022-08-17T00:15:16.027Z,1010.441906
2022-08-17T00:20:16.150Z,1010.435149
2022-08-17T00:25:16.155Z,1010.431017
2022-08-17T00:30:16.033Z,1010.458271
2022-08-17T00:35:16.157Z,1010.475635
2022-08-17T00:40:16.253Z,1010.502965
2022-08-17T00:45:15.969Z,1010.510000
2022-08-17T00:50:16.260Z,1010.509626
2022-08-17T00:55:15.915Z,1010.455055
2022-08-17T01:00:16.323Z,1010.441447
2022-08-17T01:05:16.213Z,1010.442537
2022-08-17T01:11:00.038Z,1010.455495
2022-08-17T01:15:16.073Z,1010.536311
2022-08-17T01:20:16.187Z,1010.574902
2022-08-17T01:25:16.311Z,1010.589975
2022-08-17T01:30:58.419Z,1010.595759
2022-08-17T01:35:15.980Z,1010.575139
2022-08-17T01:40:16.039Z,1010.551874
2022-08-17T01:45:15.987Z,1010.581174
2022-08-17T01:50:15.979Z,1010.520918
2022-08-17T01:55:16.002Z,1010.498988
2022-08-17T02:00:16.055Z,1010.548974
2022-08-17T02:05:15.946Z,1010.556405
2022-08-17T02:10:20.022Z,1010.526980
2022-08-17T02:15:16.129Z,1010.547717
2022-08-17T02:20:16.005Z,1010.554538
2022-08-17T02:25:16.054Z,1010.556121
2022-08-17T02:30:59.779Z,1010.495811
2022-08-17T02:35:15.972Z,1010.436121
2022-08-17T02:40:16.099Z,1010.461619
2022-08-17T02:45:16.191Z,1010.425878
2022-08-17T02:50:16.042Z,1010.387695
2022-08-17T02:55:16.158Z,1010.376778
2022-08-17T03:00:16.194Z,1010.331142
2022-08-17T03:05:16.430Z,1010.300109
2022-08-17T03:10:15.997Z,1010.281430
2022-08-17T03:15:16.077Z,1010.294949
2022-08-17T03:20:15.961Z,1010.319757
2022-08-17T03:25:16.014Z,1010.333285
2022-08-17T03:30:16.006Z,1010.346796
2022-08-17T03:35:15.980Z,1010.368405
2022-08-17T03:40:16.018Z,1010.338452
2022-08-17T03:45:16.167Z,1010.380473
2022-08-17T03:50:15.977Z,1010.375371
2022-08-17T03:55:16.051Z,1010.399667
2022-08-17T04:00:15.990Z,1010.422342
2022-08-17T04:05:15.985Z,1010.397847
2022-08-17T04:10:15.956Z,1010.451076
2022-08-17T04:15:15.957Z,1010.446081
2022-08-17T04:20:16.197Z,1010.474894
2022-08-17T04:25:16.067Z,1010.465872
2022-08-17T04:30:15.922Z,1010.486313
2022-08-17T04:35:16.124Z,1010.559537
2022-08-17T04:40:16.121Z,1010.551195
2022-08-17T04:45:16.127Z,1010.594345
2022-08-17T04:50:16.040Z,1010.581239
2022-08-17T04:55:15.924Z,1010.640958
2022-08-17T05:00:16.202Z,1010.613705
2022-08-17T05:05:15.993Z,1010.636331
2022-08-17T05:10:15.956Z,1010.641094
2022-08-17T05:15:15.934Z,1010.645824
2022-08-17T05:20:16.195Z,1010.650514
2022-08-17T05:25:16.046Z,1010.648159
2022-08-17T05:30:16.096Z,1010.657231
2022-08-17T05:35:15.939Z,1010.647791
2022-08-17T05:40:15.955Z,1010.627173
2022-08-17T05:45:16.010Z,1010.591019
2022-08-17T05:50:18.092Z,1010.601255
2022-08-17T05:55:16.116Z,1010.571134
2022-08-17T06:00:16.021Z,1010.551212
2022-08-17T06:05:16.237Z,1010.556846
2022-08-17T06:10:15.960Z,1010.471571
2022-08-17T06:15:16.231Z,1010.464306
2022-08-17T06:20:16.179Z,1010.469241
2022-08-17T06:25:16.003Z,1010.512872
2022-08-17T06:30:15.908Z,1010.562632
2022-08-17T06:35:15.924Z,1010.577931
2022-08-17T06:40:16.004Z,1010.522479
2022-08-17T06:45:16.252Z,1010.475017
2022-08-17T09:40:16.257Z,1009.993728
2022-08-17T09:45:15.872Z,1009.985966
2022-08-17T09:50:16.304Z,1009.989089
2022-08-17T09:55:15.893Z,1009.986573
2022-08-17T10:00:16.116Z,1009.990608
2022-08-17T10:05:16.010Z,1009.928058
2022-08-17T10:10:15.948Z,1009.850844
2022-08-17T10:15:16.016Z,1009.849784
2022-08-17T10:20:16.138Z,1009.780544
2022-08-17T10:25:23.711Z,1009.743164
2022-08-17T10:30:16.245Z,1009.753649
2022-08-17T10:35:16.144Z,1009.726350
2022-08-17T10:40:16.406Z,1009.672098
2022-08-17T10:45:15.953Z,1009.536218
2022-08-17T10:50:16.015Z,1009.505818
2022-08-17T10:55:15.955Z,1009.528872
2022-08-17T11:00:15.951Z,1009.473040
2022-08-17T11:05:16.005Z,1009.439276
2022-08-17T11:10:15.847Z,1009.417219
2022-08-17T11:15:15.936Z,1009.446514
2022-08-17T11:20:16.030Z,1009.500910
2022-08-17T11:25:15.909Z,1009.485434
2022-08-17T11:30:15.960Z,1009.394747
2022-08-17T11:35:15.969Z,1009.283840
2022-08-17T11:40:16.116Z,1009.276272
2022-08-17T11:45:19.430Z,1009.239211
2022-08-17T11:50:16.500Z,1009.299238
2022-08-17T11:55:34.496Z,1009.344890
2022-08-17T12:00:15.926Z,1009.340330
2022-08-17T12:05:16.153Z,1009.113549
2022-08-17T12:10:15.869Z,1009.058886
2022-08-17T12:15:15.887Z,1008.977881
2022-08-17T12:20:15.872Z,1008.930187
2022-08-17T12:25:16.148Z,1008.996853
2022-08-17T12:30:15.852Z,1008.885608
2022-08-17T12:35:16.142Z,1008.894550
2022-08-17T12:40:16.277Z,1008.862107
2022-08-17T12:45:15.971Z,1008.789263
2022-08-17T12:50:29.473Z,1008.760093
2022-08-17T12:55:15.868Z,1008.807423
2022-08-17T13:00:16.350Z,1008.876934
2022-08-17T13:05:15.913Z,1008.875696
2022-08-17T13:10:16.091Z,1008.907194
2022-08-17T13:15:15.956Z,1008.977896
2022-08-17T13:20:15.964Z,1008.879323
2022-08-17T13:25:15.917Z,1008.689721
2022-08-17T13:30:15.898Z,1008.593917
2022-08-17T13:35:29.738Z,1008.537725
2022-08-17T13:40:15.983Z,1008.482822
2022-08-17T13:45:34.985Z,1008.421942
2022-08-17T13:50:15.802Z,1008.371320
2022-08-17T13:55:16.076Z,1008.361916
2022-08-17T14:00:15.847Z,1008.350555
2022-08-17T14:05:15.885Z,1008.252848
2022-08-17T14:10:15.905Z,1008.267315
2022-08-17T14:15:15.815Z,1008.273590
2022-08-17T14:20:15.918Z,1008.226559
2022-08-17T14:25:15.812Z,1008.315430
2022-08-17T14:30:15.852Z,1008.385829
2022-08-17T14:35:15.816Z,1008.463916
2022-08-17T14:40:15.909Z,1008.451061
2022-08-17T14:45:29.939Z,1008.487559
2022-08-17T14:50:15.821Z,1008.508399
2022-08-17T14:55:16.029Z,1008.508789
2022-08-17T15:00:16.024Z,1008.532141
2022-08-17T15:05:16.311Z,1008.593383
2022-08-17T15:10:15.971Z,1008.645980
2022-08-17T15:15:16.079Z,1008.647659
2022-08-17T15:20:15.991Z,1008.670339
2022-08-17T15:25:16.042Z,1008.594452
2022-08-17T15:30:15.838Z,1008.499801
2022-08-17T15:35:15.812Z,1008.456895
2022-08-17T15:40:16.153Z,1008.475372
2022-08-17T15:45:15.823Z,1008.437750
2022-08-17T15:50:15.847Z,1008.364141
2022-08-17T15:55:17.184Z,1008.303471
2022-08-17T16:00:15.807Z,1008.335718
2022-08-17T16:05:15.884Z,1008.380207
2022-08-17T16:10:19.042Z,1008.385656
2022-08-17T16:15:15.805Z,1008.348949
2022-08-17T16:20:20.541Z,1008.279933
2022-08-17T16:25:15.881Z,1008.332485
2022-08-17T16:30:17.618Z,1008.340738
2022-08-17T16:35:15.791Z,1008.322636
2022-08-17T16:40:16.233Z,1008.309868
2022-08-17T16:45:16.095Z,1008.286631
2022-08-17T16:50:16.053Z,1008.255599
2022-08-17T16:55:15.783Z,1008.303531
2022-08-17T17:00:15.862Z,1008.356972
2022-08-17T17:05:15.887Z,1008.489124
2022-08-17T17:10:15.909Z,1008.549520
2022-08-17T17:15:21.994Z,1008.563052
2022-08-17T17:20:15.887Z,1008.587587
2022-08-17T17:25:15.936Z,1008.612089
2022-08-17T17:30:15.776Z,1008.576335
2022-08-17T17:35:15.727Z,1008.692541
2022-08-17T17:40:15.873Z,1008.766641
2022-08-17T17:45:15.781Z,1008.849690
2022-08-17T17:50:15.783Z,1008.827809
2022-08-17T17:55:16.229Z,1008.777750
2022-08-17T18:00:15.818Z,1008.829382
2022-08-17T18:05:16.397Z,1008.850868
2022-08-17T18:10:29.885Z,1008.912264
2022-08-17T18:15:15.935Z,1008.942069
2022-08-17T18:20:16.056Z,1008.998817
2022-08-17T18:25:15.796Z,1009.050796
2022-08-17T18:30:15.904Z,1009.024763
2022-08-17T18:35:15.777Z,1009.017519
2022-08-17T18:40:15.888Z,1009.002459
2022-08-17T18:45:15.881Z,1008.974189
2022-08-17T18:50:15.783Z,1009.012037
2022-08-17T18:55:18.252Z,1008.967502
2022-08-17T19:00:18.251Z,1009.058589
2022-08-17T19:05:18.545Z,1009.195604
2022-08-17T19:10:18.276Z,1009.212645
2022-08-17T19:15:18.352Z,1009.214506
2022-08-17T19:20:18.626Z,1009.128429
2022-08-17T19:25:18.407Z,1009.123079
2022-08-17T19:30:18.325Z,1009.146434
2022-08-17T19:35:18.281Z,1009.075364
2022-08-17T19:40:41.911Z,1009.082951
2022-08-17T19:45:18.632Z,1009.150109
2022-08-17T19:50:18.456Z,1009.179883
2022-08-17T19:55:20.802Z,1009.163923
2022-08-17T20:00:18.408Z,1009.168472
2022-08-17T20:05:18.737Z,1009.166436
2022-08-17T20:10:18.442Z,1009.156113
2022-08-17T20:15:18.387Z,1009.104846
2022-08-17T20:20:19.771Z,1009.157204
2022-08-17T20:25:18.275Z,1009.163513
2022-08-17T20:30:18.435Z,1009.189851
2022-08-17T20:35:18.363Z,1009.173753
2022-08-17T20:40:18.447Z,1009.195252
2022-08-17T20:45:18.268Z,1009.260754
2022-08-17T20:50:18.260Z,1009.321563
2022-08-17T20:55:18.336Z,1009.357972
2022-08-17T21:00:18.261Z,1009.353408
2022-08-17T21:05:18.476Z,1009.346595
2022-08-17T21:10:18.318Z,1009.310665
2022-08-17T21:15:18.278Z,1009.347557
2022-08-17T21:20:18.216Z,1009.422284
2022-08-17T21:25:18.266Z,1009.491214
2022-08-17T21:30:18.271Z,1009.618976
2022-08-17T21:35:18.565Z,1009.720847
2022-08-17T21:40:18.528Z,1009.841837
2022-08-17T21:45:18.323Z,1009.899014
2022-08-17T21:50:18.478Z,1009.908295
2022-08-17T21:55:18.346Z,1009.858592
2022-08-17T22:00:15.756Z,1009.816300
2022-08-17T22:05:15.967Z,1009.914540
2022-08-17T22:10:15.851Z,1009.927030
2022-08-17T22:15:15.870Z,1009.846924
2022-08-17T22:20:15.875Z,1009.879347
2022-08-17T22:25:15.882Z,1009.885465
2022-08-17T22:30:15.794Z,1009.920903
2022-08-17T22:35:15.873Z,1009.899175
2022-08-17T22:40:15.959Z,1009.975914
2022-08-17T22:45:15.706Z,1010.039921
2022-08-17T22:50:15.899Z,1010.078115
2022-08-17T22:55:15.903Z,1010.167634
2022-08-17T23:00:15.821Z,1010.254665
2022-08-17T23:05:15.992Z,1010.237589
2022-08-17T23:10:15.866Z,1010.237955
2022-08-17T23:15:15.897Z,1010.208061
2022-08-17T23:20:15.811Z,1010.132002
2022-08-17T23:25:15.871Z,1010.153912
2022-08-17T23:30:15.997Z,1010.125570
2022-08-17T23:35:15.890Z,1010.086314
2022-08-17T23:40:16.040Z,1010.034428
2022-08-17T23:45:15.808Z,1010.015507
2022-08-17T23:50:15.833Z,1010.015498
2022-08-17T23:55:15.775Z,1010.023427
